Главная страница
METAR-TAF:

METAR-TAF

Аэропорты :

Бахрейн, Бахрейн

широта: 26-16N, долгота: 050-39E, высота над уровнем моря: 2 м

Текущие метеонаблюдения

Эта сводка был подготовлена 28 минут назад, в 01:00 UTC
Ветер 10 Узел от западно-северо-западный
Температура 33°C
Влажность 46%
Давление 1001 hPa
Видимость: 2500 м
ясное небо
пыль, взвешенная над обширной территорией

METAR: OBBI 240100Z 29010KT 2500 DU SKC 33/20 Q1001 NOSIG

Время: 04:28 (01:28 UTC)

Прогноз

Эта сводка был подготовлена 59 минут назад, в 00:29 UTC
Прогноз действительный с 24-го 00 UTC до 25-го 06 UTC
Ветер 15 Узел от северно-северо-западный
Видимость: 8000 м
временами
С 24-го 00 UTC до 24-го 05 UTC
Видимость: 3000 м
пыль, взвешенная над обширной территорией
изменения
С 24-го 14 UTC до 24-го 16 UTC
Ветер 5 Узел от западно-северо-западный

TAF: OBBI 240029Z 2400/2506 34015KT 8000 NSC TEMPO 2400/2405 3000 DU BECMG 2414/2416 29005KT

Метеонаблюдения и прогнозы для более 4000 аэропортов (сводки METAR и TAF).

Имеющиеся станции представлены на карте желтыми и красными точками.

Чтобы увидеть название станции, наведите на нее мышь.

Затем щелкните, чтобы увидеть метеонаблюдения и метеопрогнозы.

Управление картой: чтобы увеличить масштаб, щелкните зеленые кнопки с черным крестиком; чтобы уменьшить масштаб, щелкните зеленую кнопку с тире; для просмотра соседних карт щелкайте зеленые стрелки.


METAR-TAF: